createdAt,value
2023-02-22T00:02:27.262Z,2.20
2023-02-22T00:04:55.568Z,1.50
2023-02-22T00:07:24.058Z,2.30
2023-02-22T00:09:52.665Z,2.20
2023-02-22T00:12:21.366Z,2.20
2023-02-22T00:14:51.599Z,2.10
2023-02-22T00:17:20.858Z,1.90
2023-02-22T00:19:50.853Z,2.20
2023-02-22T00:22:19.850Z,2.60
2023-02-22T00:25:07.122Z,1.80
2023-02-22T00:27:36.123Z,2.10
2023-02-22T00:30:07.602Z,2.20
2023-02-22T00:32:39.621Z,2.00
2023-02-22T00:35:09.763Z,2.10
2023-02-22T00:37:42.113Z,1.60
2023-02-22T00:40:11.845Z,2.60
2023-02-22T00:42:40.189Z,1.80
2023-02-22T00:45:09.387Z,2.10
2023-02-22T00:47:37.882Z,2.10
2023-02-22T00:50:06.572Z,2.70
2023-02-22T00:52:36.380Z,2.00
2023-02-22T00:55:07.835Z,2.10
2023-02-22T00:57:37.007Z,2.70
2023-02-22T01:00:12.341Z,2.50
2023-02-22T01:02:42.465Z,1.80
2023-02-22T01:05:16.543Z,2.40
2023-02-22T01:07:46.470Z,2.10
2023-02-22T01:10:19.652Z,2.80
2023-02-22T01:12:50.252Z,2.20
2023-02-22T01:15:23.603Z,2.00
2023-02-22T01:17:53.885Z,1.80
2023-02-22T01:20:29.513Z,2.00
2023-02-22T01:22:58.991Z,2.40
2023-02-22T01:25:29.191Z,2.10
2023-02-22T01:27:58.814Z,2.20
2023-02-22T01:30:30.490Z,2.10
2023-02-22T01:35:29.705Z,1.90
2023-02-22T01:37:58.565Z,2.20
2023-02-22T01:40:38.248Z,2.10
2023-02-22T01:43:30.018Z,2.20
2023-02-22T01:46:01.617Z,2.20
2023-02-22T01:48:49.770Z,2.90
2023-02-22T01:51:20.545Z,2.50
2023-02-22T01:54:09.820Z,2.00
2023-02-22T01:56:38.986Z,2.40
2023-02-22T01:59:10.182Z,2.80
2023-02-22T02:01:43.293Z,2.20
2023-02-22T02:04:18.423Z,2.00
2023-02-22T02:06:49.182Z,2.10
2023-02-22T02:09:55.879Z,2.60
2023-02-22T02:12:25.237Z,2.30
2023-02-22T02:14:54.276Z,2.50
2023-02-22T02:17:22.933Z,2.40
2023-02-22T02:20:13.576Z,2.70
2023-02-22T02:22:46.567Z,2.30
2023-02-22T02:25:33.899Z,2.60
2023-02-22T02:28:10.388Z,2.80
2023-02-22T02:31:21.352Z,2.70
2023-02-22T02:34:47.069Z,2.50
2023-02-22T02:37:33.485Z,2.60
2023-02-22T02:40:14.315Z,3.10
2023-02-22T02:42:54.973Z,2.70
2023-02-22T02:45:35.290Z,2.80
2023-02-22T02:48:03.963Z,2.50
2023-02-22T02:50:38.282Z,2.40
2023-02-22T02:53:08.395Z,2.90
2023-02-22T02:55:37.436Z,2.30
2023-02-22T02:58:06.656Z,2.40
2023-02-22T03:00:40.818Z,2.60
2023-02-22T03:03:37.748Z,3.10
2023-02-22T03:06:37.090Z,2.70
2023-02-22T03:09:35.814Z,2.80
2023-02-22T03:12:32.721Z,3.00
2023-02-22T03:15:44.066Z,2.70
2023-02-22T03:18:18.116Z,3.00
2023-02-22T03:21:18.698Z,2.60
2023-02-22T03:23:59.476Z,2.20
2023-02-22T03:27:04.506Z,2.20
2023-02-22T03:29:35.936Z,2.30
2023-02-22T03:32:07.414Z,2.50
2023-02-22T03:34:44.325Z,2.80
2023-02-22T03:37:22.281Z,3.00
2023-02-22T03:39:52.997Z,2.60
2023-02-22T03:42:24.227Z,3.30
2023-02-22T03:44:54.024Z,2.40
2023-02-22T03:47:40.359Z,2.90
2023-02-22T03:50:10.560Z,3.10
2023-02-22T03:52:39.260Z,3.10
2023-02-22T03:55:12.172Z,2.70
2023-02-22T03:57:42.469Z,3.00
2023-02-22T04:00:12.498Z,2.90
2023-02-22T04:02:45.407Z,2.60
2023-02-22T04:05:17.439Z,2.60
2023-02-22T04:07:46.326Z,3.10
2023-02-22T04:10:16.441Z,2.80
2023-02-22T04:12:46.254Z,2.50
2023-02-22T04:15:21.429Z,2.70
2023-02-22T04:17:52.637Z,3.20
2023-02-22T04:20:25.801Z,2.60
2023-02-22T04:23:00.558Z,3.10
2023-02-22T04:25:30.598Z,2.90
2023-02-22T04:27:59.556Z,3.20
2023-02-22T04:30:46.270Z,2.50
2023-02-22T04:33:17.423Z,2.30
2023-02-22T04:35:46.205Z,2.80
2023-02-22T04:38:15.548Z,2.70
2023-02-22T04:40:44.058Z,2.60
2023-02-22T04:43:15.474Z,3.30
2023-02-22T04:45:44.872Z,3.10
2023-02-22T04:48:13.601Z,2.50
2023-02-22T04:50:44.025Z,2.50
2023-02-22T04:53:12.920Z,2.80
2023-02-22T04:55:41.377Z,2.70
2023-02-22T04:58:10.111Z,2.60
2023-02-22T05:00:41.355Z,3.60
2023-02-22T05:03:09.762Z,3.20
2023-02-22T05:05:38.442Z,3.30
2023-02-22T05:08:06.843Z,3.20
2023-02-22T05:10:38.588Z,2.80
2023-02-22T05:13:07.326Z,3.00
2023-02-22T05:15:35.920Z,3.40
2023-02-22T05:18:05.214Z,3.00
2023-02-22T05:20:34.939Z,3.60
2023-02-22T05:23:03.508Z,3.50
2023-02-22T05:25:34.772Z,2.90
2023-02-22T05:28:05.440Z,3.60
2023-02-22T05:30:35.572Z,3.40
2023-02-22T05:33:03.983Z,3.40
2023-02-22T05:35:32.801Z,3.50
2023-02-22T05:38:03.400Z,3.10
2023-02-22T05:40:33.340Z,3.80
2023-02-22T05:43:02.985Z,3.90
2023-02-22T05:45:32.470Z,3.10
2023-02-22T05:48:01.382Z,3.70
2023-02-22T05:50:30.755Z,2.80
2023-02-22T05:52:59.442Z,3.40
2023-02-22T05:55:27.810Z,3.30
2023-02-22T05:57:56.188Z,3.50
2023-02-22T06:00:27.027Z,3.00
2023-02-22T06:02:56.655Z,3.70
2023-02-22T06:05:25.773Z,3.70
2023-02-22T06:07:54.334Z,3.60
2023-02-22T06:10:22.750Z,3.20
2023-02-22T06:12:51.245Z,3.10
2023-02-22T06:15:21.610Z,3.50
2023-02-22T06:17:50.019Z,3.70
2023-02-22T06:20:21.500Z,3.20
2023-02-22T06:22:54.401Z,3.50
2023-02-22T06:25:26.080Z,3.70
2023-02-22T06:27:54.625Z,3.20
2023-02-22T06:30:24.135Z,3.80
2023-02-22T06:32:52.528Z,4.30
2023-02-22T06:35:22.008Z,3.30
2023-02-22T06:37:50.302Z,3.30
2023-02-22T06:40:19.291Z,3.90
2023-02-22T06:42:50.138Z,3.70
2023-02-22T06:45:19.807Z,4.10
2023-02-22T06:47:49.877Z,3.20
2023-02-22T06:50:29.552Z,3.30
2023-02-22T06:52:58.476Z,2.90
2023-02-22T06:55:31.916Z,4.30
2023-02-22T06:58:01.121Z,3.40
2023-02-22T07:00:30.858Z,3.40
2023-02-22T07:02:59.507Z,4.20
2023-02-22T07:05:31.775Z,3.40
2023-02-22T07:08:07.197Z,3.20
2023-02-22T07:10:38.152Z,3.30
2023-02-22T07:13:09.618Z,3.80
2023-02-22T07:15:39.648Z,3.30
2023-02-22T07:18:08.353Z,4.60
2023-02-22T07:20:39.438Z,3.50
2023-02-22T07:23:09.446Z,3.30
2023-02-22T07:25:37.826Z,3.60
2023-02-22T07:28:07.203Z,3.50
2023-02-22T07:30:39.358Z,3.20
2023-02-22T07:33:09.081Z,2.90
2023-02-22T07:35:48.120Z,3.80
2023-02-22T07:38:22.037Z,4.60
2023-02-22T07:40:50.892Z,3.90
2023-02-22T07:43:27.182Z,4.40
2023-02-22T07:45:57.187Z,3.90
2023-02-22T07:48:28.816Z,3.90
2023-02-22T07:50:58.185Z,3.80
2023-02-22T07:53:30.472Z,3.80
2023-02-22T07:56:01.037Z,3.70
2023-02-22T07:58:32.079Z,3.70
2023-02-22T08:01:04.525Z,5.20
2023-02-22T08:03:37.018Z,4.10
2023-02-22T08:06:07.523Z,8.80
2023-02-22T08:08:36.968Z,4.00
2023-02-22T08:11:06.172Z,3.30
2023-02-22T08:13:37.710Z,3.50
2023-02-22T08:16:06.679Z,3.20
2023-02-22T08:18:38.476Z,3.00
2023-02-22T08:21:08.065Z,2.90
2023-02-22T08:23:39.198Z,3.20
2023-02-22T08:26:09.629Z,3.60
2023-02-22T08:28:39.827Z,3.30
2023-02-22T08:31:10.173Z,3.00
2023-02-22T08:33:38.826Z,6.40
2023-02-22T08:36:08.596Z,4.50
2023-02-22T08:38:39.058Z,3.40
2023-02-22T08:41:08.609Z,3.00
2023-02-22T08:43:37.854Z,3.70
2023-02-22T08:46:06.879Z,3.50
2023-02-22T08:48:36.765Z,3.20
2023-02-22T08:51:05.697Z,3.10
2023-02-22T08:53:35.203Z,2.60
2023-02-22T08:56:04.193Z,3.00
2023-02-22T08:58:32.694Z,3.60
2023-02-22T09:01:01.781Z,3.00
2023-02-22T09:03:30.274Z,2.70
2023-02-22T09:05:59.840Z,3.00
2023-02-22T09:08:31.713Z,3.10
2023-02-22T09:11:00.476Z,3.20
2023-02-22T09:13:28.827Z,2.40
2023-02-22T09:15:57.246Z,2.60
2023-02-22T09:18:30.554Z,1.90
2023-02-22T09:21:06.175Z,2.50
2023-02-22T09:23:35.251Z,1.90
2023-02-22T09:26:08.114Z,2.20
2023-02-22T09:28:36.974Z,1.90
2023-02-22T09:31:05.794Z,2.30
2023-02-22T09:33:35.750Z,2.10
2023-02-22T09:36:07.084Z,2.80
2023-02-22T09:38:36.580Z,2.20
2023-02-22T09:41:14.856Z,2.10
2023-02-22T09:44:16.873Z,2.00
2023-02-22T09:46:46.180Z,2.50
2023-02-22T09:49:31.466Z,2.40
2023-02-22T09:52:05.373Z,1.60
2023-02-22T09:54:38.566Z,2.60
2023-02-22T09:57:40.902Z,1.90
2023-02-22T10:00:18.495Z,1.50
2023-02-22T10:02:47.318Z,2.20
2023-02-22T10:05:28.468Z,2.00
2023-02-22T10:08:06.180Z,1.80
2023-02-22T10:10:39.437Z,1.30
2023-02-22T10:13:14.322Z,2.00
2023-02-22T10:15:51.743Z,1.60
2023-02-22T10:19:08.218Z,1.40
2023-02-22T10:22:14.195Z,1.70
2023-02-22T10:24:57.894Z,1.80
2023-02-22T10:27:49.502Z,1.40
2023-02-22T10:30:25.440Z,3.60
2023-02-22T10:33:17.856Z,1.60
2023-02-22T10:35:47.155Z,1.30
2023-02-22T10:38:32.594Z,1.30
2023-02-22T10:41:04.236Z,1.10
2023-02-22T10:43:33.577Z,1.50
2023-02-22T10:46:05.143Z,1.10
2023-02-22T10:48:37.480Z,1.40
2023-02-22T10:51:08.729Z,1.10
2023-02-22T10:53:38.675Z,1.20
2023-02-22T10:56:13.268Z,1.60
2023-02-22T10:59:03.109Z,1.10
2023-02-22T11:01:32.050Z,3.30
2023-02-22T11:04:05.574Z,3.00
2023-02-22T11:06:35.013Z,3.30
2023-02-22T11:09:11.110Z,2.00
2023-02-22T11:11:43.641Z,1.70
2023-02-22T11:14:13.927Z,1.20
2023-02-22T11:16:47.827Z,1.60
2023-02-22T11:19:16.693Z,1.70
2023-02-22T11:21:45.383Z,1.80
2023-02-22T11:24:14.586Z,1.70
2023-02-22T11:26:44.898Z,1.30
2023-02-22T11:29:27.776Z,1.30
2023-02-22T11:31:56.246Z,1.30
2023-02-22T11:34:27.861Z,2.10
2023-02-22T11:36:56.810Z,1.60
2023-02-22T11:39:35.799Z,1.00
2023-02-22T11:42:25.092Z,1.10
2023-02-22T11:45:13.218Z,1.30
2023-02-22T11:47:55.720Z,1.80
2023-02-22T11:50:40.749Z,1.70
2023-02-22T11:53:22.897Z,1.80
2023-02-22T11:56:16.131Z,2.00
2023-02-22T11:59:29.529Z,1.70
2023-02-22T12:02:27.516Z,1.70
2023-02-22T12:05:08.386Z,2.00
2023-02-22T12:07:59.049Z,2.70
2023-02-22T12:10:43.650Z,3.70
2023-02-22T12:13:55.974Z,4.90
2023-02-22T12:16:31.973Z,4.80
2023-02-22T12:19:15.409Z,4.80
2023-02-22T12:21:45.371Z,6.10
2023-02-22T12:24:28.017Z,5.00
2023-02-22T12:27:00.367Z,6.10
2023-02-22T12:29:37.787Z,7.40
2023-02-22T12:32:18.679Z,5.60
2023-02-22T12:37:30.014Z,4.90
2023-02-22T12:40:09.621Z,5.40
2023-02-22T12:42:48.635Z,5.30
2023-02-22T12:45:58.347Z,5.10
2023-02-22T12:48:36.242Z,4.90
2023-02-22T12:51:43.302Z,4.30
2023-02-22T12:54:18.926Z,4.10
2023-02-22T12:56:57.918Z,4.90
2023-02-22T12:59:30.819Z,5.90
2023-02-22T13:02:03.462Z,4.70
2023-02-22T13:04:34.902Z,4.60
2023-02-22T13:07:16.451Z,5.00
2023-02-22T13:09:51.372Z,4.80
2023-02-22T13:12:46.008Z,3.90
2023-02-22T13:15:20.334Z,3.30
2023-02-22T13:18:01.575Z,4.40
2023-02-22T13:20:43.097Z,3.50
2023-02-22T13:25:57.781Z,4.00
2023-02-22T13:28:57.749Z,5.30
2023-02-22T13:31:30.755Z,4.30
2023-02-22T13:34:18.134Z,4.10
2023-02-22T13:36:49.484Z,4.60
2023-02-22T13:39:54.952Z,3.70
2023-02-22T13:42:35.638Z,3.30
2023-02-22T13:45:29.926Z,1.50
2023-02-22T13:48:04.523Z,1.00
2023-02-22T13:50:50.774Z,1.60
2023-02-22T13:53:23.789Z,2.10
2023-02-22T13:55:55.410Z,2.40
2023-02-22T13:58:24.302Z,1.70
2023-02-22T14:00:57.540Z,1.80
2023-02-22T14:03:34.513Z,4.20
2023-02-22T14:06:07.284Z,3.50
2023-02-22T14:08:36.194Z,3.80
2023-02-22T14:11:28.333Z,3.50
2023-02-22T14:14:01.207Z,3.70
2023-02-22T14:16:30.800Z,3.60
2023-02-22T14:19:06.672Z,3.20
2023-02-22T14:21:35.979Z,2.60
2023-02-22T14:24:09.606Z,13.20
2023-02-22T14:26:39.736Z,6.80
2023-02-22T14:29:17.022Z,4.30
2023-02-22T14:31:50.284Z,2.90
2023-02-22T14:34:22.438Z,8.40
2023-02-22T14:37:05.398Z,4.30
2023-02-22T14:39:44.479Z,3.80
2023-02-22T14:42:13.387Z,4.70
2023-02-22T14:44:53.991Z,5.60
2023-02-22T14:47:39.994Z,13.00
2023-02-22T14:50:27.481Z,11.10
2023-02-22T14:53:07.904Z,10.50
2023-02-22T14:55:48.084Z,23.20
2023-02-22T14:58:19.292Z,14.00
2023-02-22T15:00:50.035Z,10.70
2023-02-22T15:03:38.644Z,8.90
2023-02-22T15:06:20.147Z,4.80
2023-02-22T15:09:07.360Z,9.60
2023-02-22T15:11:36.300Z,5.80
2023-02-22T15:14:25.118Z,5.10
2023-02-22T15:17:00.695Z,5.60
2023-02-22T15:19:31.453Z,5.60
2023-02-22T15:22:00.353Z,4.80
2023-02-22T15:24:34.010Z,4.20
2023-02-22T15:29:44.702Z,14.70
2023-02-22T15:32:34.324Z,14.40
2023-02-22T15:35:14.870Z,11.80
2023-02-22T15:37:47.004Z,8.30
2023-02-22T15:40:17.875Z,7.80
2023-02-22T15:42:53.283Z,10.70
2023-02-22T15:45:22.611Z,8.70
2023-02-22T15:47:54.562Z,7.30
2023-02-22T15:50:34.052Z,5.60
2023-02-22T15:53:27.383Z,5.20
2023-02-22T15:56:01.241Z,5.80
2023-02-22T15:58:32.298Z,18.90
2023-02-22T16:01:14.480Z,22.30
2023-02-22T16:03:45.954Z,7.40
2023-02-22T16:06:28.787Z,4.20
2023-02-22T16:08:59.269Z,2.80
2023-02-22T16:11:35.295Z,3.80
2023-02-22T16:14:07.306Z,3.70
2023-02-22T16:16:37.165Z,3.80
2023-02-22T16:19:27.425Z,4.10
2023-02-22T16:22:13.510Z,4.30
2023-02-22T16:24:42.548Z,3.90
2023-02-22T16:27:16.577Z,4.20
2023-02-22T16:30:29.295Z,4.30
2023-02-22T16:32:58.399Z,3.20
2023-02-22T16:35:29.054Z,2.60
2023-02-22T16:38:02.731Z,2.90
2023-02-22T16:40:34.639Z,2.50
2023-02-22T16:43:13.091Z,2.50
2023-02-22T16:45:42.744Z,3.10
2023-02-22T16:48:18.827Z,3.00
2023-02-22T16:50:50.247Z,3.40
2023-02-22T16:53:22.974Z,2.80
2023-02-22T16:55:57.836Z,2.20
2023-02-22T16:58:28.074Z,2.60
2023-02-22T17:00:57.724Z,2.10
2023-02-22T17:03:26.389Z,2.50
2023-02-22T17:05:55.106Z,3.00
2023-02-22T17:08:24.774Z,3.30
2023-02-22T17:10:56.881Z,3.30
2023-02-22T17:13:27.226Z,3.60
2023-02-22T17:15:56.731Z,3.80
2023-02-22T17:18:28.935Z,3.80
2023-02-22T17:20:57.717Z,5.20
2023-02-22T17:23:27.817Z,5.40
2023-02-22T17:25:57.293Z,5.20
2023-02-22T17:28:26.166Z,4.70
2023-02-22T17:30:59.546Z,4.30
2023-02-22T17:33:33.311Z,3.90
2023-02-22T17:36:08.715Z,4.30
2023-02-22T17:38:41.817Z,4.60
2023-02-22T17:41:13.506Z,3.90
2023-02-22T17:43:43.145Z,4.20
2023-02-22T17:46:12.501Z,5.30
2023-02-22T17:48:41.386Z,5.70
2023-02-22T17:51:11.017Z,4.20
2023-02-22T17:53:40.160Z,3.90
2023-02-22T17:56:10.700Z,4.30
2023-02-22T17:58:40.867Z,7.60
2023-02-22T18:01:44.194Z,7.90
2023-02-22T18:04:13.368Z,6.50
2023-02-22T18:06:44.847Z,5.40
2023-02-22T18:09:17.925Z,4.90
2023-02-22T18:11:46.341Z,5.20
2023-02-22T18:14:14.981Z,4.90
2023-02-22T18:16:47.004Z,4.70
2023-02-22T18:19:20.992Z,4.90
2023-02-22T18:21:53.496Z,5.20
2023-02-22T18:24:24.436Z,6.30
2023-02-22T18:26:53.737Z,6.00
2023-02-22T18:29:22.843Z,5.50
2023-02-22T18:31:53.247Z,5.60
2023-02-22T18:34:25.154Z,6.00
2023-02-22T18:36:53.516Z,6.70
2023-02-22T18:39:23.186Z,7.30
2023-02-22T18:41:52.613Z,7.00
2023-02-22T18:44:22.627Z,6.70
2023-02-22T18:46:51.352Z,7.20
2023-02-22T18:49:19.878Z,6.60
2023-02-22T18:51:48.836Z,6.40
2023-02-22T18:54:19.937Z,5.90
2023-02-22T18:59:17.021Z,7.00
2023-02-22T19:01:49.267Z,7.00
2023-02-22T19:04:18.883Z,5.80
2023-02-22T19:06:48.624Z,6.00
2023-02-22T19:09:17.768Z,5.10
2023-02-22T19:11:48.509Z,4.80
2023-02-22T19:14:17.747Z,5.40
2023-02-22T19:16:46.638Z,5.20
2023-02-22T19:19:20.831Z,5.60
2023-02-22T19:21:49.574Z,5.70
2023-02-22T19:24:19.088Z,5.90
2023-02-22T19:26:50.864Z,5.10
2023-02-22T19:29:25.069Z,5.50
2023-02-22T19:31:54.039Z,5.10
2023-02-22T19:34:24.858Z,4.90
2023-02-22T19:36:53.350Z,6.70
2023-02-22T19:41:58.342Z,6.10
2023-02-22T19:44:27.407Z,9.10
2023-02-22T19:47:00.319Z,11.00
2023-02-22T19:49:30.046Z,10.90
2023-02-22T19:51:58.864Z,11.80
2023-02-22T19:54:27.760Z,7.90
2023-02-22T19:56:58.196Z,7.70
2023-02-22T20:01:56.185Z,9.10
2023-02-22T20:04:30.743Z,13.60
2023-02-22T20:07:00.298Z,14.10
2023-02-22T20:09:48.230Z,12.30
2023-02-22T20:12:16.589Z,13.70
2023-02-22T20:14:46.662Z,15.30
2023-02-22T20:17:15.687Z,9.80
2023-02-22T20:19:44.796Z,9.90
2023-02-22T20:22:13.618Z,10.60
2023-02-22T20:24:43.120Z,7.70
2023-02-22T20:27:13.142Z,8.70
2023-02-22T20:29:41.578Z,10.20
2023-02-22T20:32:12.183Z,14.20
2023-02-22T20:34:44.822Z,14.50
2023-02-22T20:37:14.617Z,12.10
2023-02-22T20:39:44.961Z,11.90
2023-02-22T20:42:15.744Z,12.30
2023-02-22T20:44:45.466Z,11.70
2023-02-22T20:47:14.211Z,12.30
2023-02-22T20:49:44.520Z,11.80
2023-02-22T20:52:16.378Z,12.50
2023-02-22T20:54:46.049Z,13.80
2023-02-22T20:57:14.963Z,12.10
2023-02-22T20:59:44.563Z,12.60
2023-02-22T21:02:13.202Z,13.90
2023-02-22T21:04:41.873Z,12.50
2023-02-22T21:07:10.174Z,13.90
2023-02-22T21:09:40.571Z,13.20
2023-02-22T21:12:13.769Z,14.30
2023-02-22T21:14:44.400Z,14.70
2023-02-22T21:17:13.129Z,16.30
2023-02-22T21:19:42.431Z,16.60
2023-02-22T21:22:12.530Z,17.70
2023-02-22T21:24:42.004Z,17.40
2023-02-22T21:27:12.413Z,16.70
2023-02-22T21:29:41.088Z,16.00
2023-02-22T21:32:10.529Z,17.40
2023-02-22T21:34:39.194Z,17.00
2023-02-22T21:37:08.501Z,15.10
2023-02-22T21:39:40.652Z,15.40
2023-02-22T21:42:09.171Z,16.10
2023-02-22T21:44:37.931Z,16.10
2023-02-22T21:47:08.029Z,15.20
2023-02-22T21:49:38.358Z,15.60
2023-02-22T21:52:08.008Z,16.10
2023-02-22T21:54:37.741Z,15.30
2023-02-22T21:57:07.013Z,14.70
2023-02-22T21:59:35.421Z,15.60
2023-02-22T22:02:04.317Z,15.40
2023-02-22T22:04:35.140Z,14.80
2023-02-22T22:07:05.327Z,15.70
2023-02-22T22:09:37.587Z,16.40
2023-02-22T22:12:10.817Z,15.60
2023-02-22T22:14:42.264Z,15.20
2023-02-22T22:17:13.022Z,15.80
2023-02-22T22:19:44.626Z,15.00
2023-02-22T22:22:13.305Z,15.50
2023-02-22T22:24:45.974Z,13.70
2023-02-22T22:27:15.273Z,14.50
2023-02-22T22:29:43.769Z,13.10
2023-02-22T22:32:13.925Z,14.60
2023-02-22T22:34:44.031Z,14.30
2023-02-22T22:37:13.400Z,14.30
2023-02-22T22:39:42.732Z,14.40
2023-02-22T22:42:11.417Z,15.20
2023-02-22T22:44:42.702Z,15.60
2023-02-22T22:47:14.447Z,14.00
2023-02-22T22:49:43.022Z,15.10
2023-02-22T22:52:14.142Z,15.20
2023-02-22T22:54:47.465Z,14.70
2023-02-22T22:57:15.783Z,14.90
2023-02-22T22:59:44.026Z,14.80
2023-02-22T23:02:12.838Z,14.90
2023-02-22T23:04:41.309Z,16.10
2023-02-22T23:07:11.415Z,16.80
2023-02-22T23:09:41.744Z,15.70
2023-02-22T23:12:18.056Z,15.20
2023-02-22T23:14:52.237Z,14.10
2023-02-22T23:17:43.942Z,14.80
2023-02-22T23:20:13.167Z,14.70
2023-02-22T23:22:47.389Z,15.10
2023-02-22T23:25:19.850Z,13.60
2023-02-22T23:27:49.617Z,15.80
2023-02-22T23:30:22.527Z,16.30
2023-02-22T23:32:53.357Z,16.80
2023-02-22T23:35:21.584Z,16.50
2023-02-22T23:37:53.142Z,17.00
2023-02-22T23:40:21.768Z,17.00
2023-02-22T23:42:51.531Z,15.00
2023-02-22T23:45:23.628Z,15.50
2023-02-22T23:47:55.248Z,15.00
2023-02-22T23:50:26.991Z,13.50
2023-02-22T23:52:59.782Z,14.20
2023-02-22T23:55:31.722Z,13.40
2023-02-22T23:58:00.112Z,13.20
